Airfield :
LOGIN :

Register | Disclaimer

   EN    FR    IT 

 










Legend :    VFR   Marginal VFR   IFR   Intensive IFR   Very Intensive IFR
Visi :
Ceiling :
>= 8 km
>= 3000ft
5 to 8 km
1000 to 3000 ft
1500m to 5 km
500 to 1000 ft
800 to 1500m
200 to 500 ft
< 800m
< 200 ft
Symbols :   Thunderstorms  Fog  Heavy snow  Heavy precipitations  Wind > 20 kt
SIGMETs :     Misc.  Thunderstorms  Icing  Turbulence  Mountain Waves  Volcanic Ashes






- Airport Elevation : 284 ft


EGUW - RAF Wattisham

CURRENT METAR :
  • 271250Z 23003KT 9999 SCT037 BKN057 20/11 Q1035 NOSIG RMK BLU BLU

EXPIRED METARs :
  • 271220Z 01003KT 9999 FEW037 BKN058 20/11 Q1035 NOSIG RMK BLU BLU
  • 271150Z 35004KT 9999 FEW040 BKN055 19/10 Q1035 NOSIG RMK BLU BLU
  • 271120Z 09003KT 9999 FEW040 BKN055 19/10 Q1036 NOSIG RMK BLU BLU
  • 271050Z 04003KT 9999 FEW040 BKN054 19/10 Q1036 NOSIG RMK BLU BLU
  • 271020Z 02003KT 9999 FEW040 BKN053 18/09 Q1036 NOSIG RMK BLU BLU

TAF TAF EGUW
Valid from the 27 at 12:00 until the 27 at 21:00 UTC


271022Z 2712/2721 06005KT 9999 SCT040



MET'MAP, your aeronautical weather chart ! - Copyright ORBIFLY December 2007 - Disclaimer

ORBIFLY MET'MAP TEAM :

Programming & Development : Alexandra Zaïnal
Concept & original design : Baudouin d'Aumeries
Assistance for programming : Marc-Olivier Méhu
Technical & hardware support : Manuel Goepfert

Contact : metmap@orbifly.com




SOURCES & CREDITS :

   NOAA